Aviation Digital Data Service (ADDS)

Output produced by TAFs form (0715 UTC 18 December 2014)
found at http://aviationweather.gov/adds/tafs/
 
KCNM 180530Z 1806/1906 26006KT P6SM FEW250 
     FM181800 30008KT P6SM OVC150